Cassidy International Airport Banana KI
ICAO: PLCH
IATA: CXI
Category: Medium
Scheduled Services:

Elevation: 5 ft
TransAlt. 11000 ft.

Airport Communications:
AFIS:118.1
AFIS:346

PLCH Zoom In..

If you have problems with the map follow the link
https://www.worldairports.se/pages/airport.php?
ICAO=PLCH

Runways:

(A) RW 08 length 6900 ft width 148 ft
---- / hdg 81

(B) RW 26 length 6900 ft width 148 ft
---- / hdg 261

Location; PLCH
Day. 21 / Time. 12.00 Zulu
* QNH: 1011
* Temperature: 27° c. 80.6°f.
* Wind from: 090° Speed 05 kn.
Dewpoint: 23° c.
Visibility: 10 km or more.
Clouds: Scattered 2000 ft.
Clouds: Broken 4000 ft.

PLCH 211200Z 09005KT 9999 SCT020 BKN040 27/23 Q1011


Wind From 090°
Speed 05 kn.

 
 
jpsmedia worldairports.se 2020   terms of use